createdAt,value
2018-12-10T00:00:33.919Z,95263.00
2018-12-10T00:06:02.131Z,95245.00
2018-12-10T00:11:30.375Z,95257.00
2018-12-10T00:16:58.473Z,95263.00
2018-12-10T00:22:26.581Z,95278.00
2018-12-10T00:27:54.685Z,95283.00
2018-12-10T00:33:22.764Z,95284.00
2018-12-10T00:38:50.902Z,95293.00
2018-12-10T00:44:19.043Z,95304.00
2018-12-10T00:49:47.121Z,95302.00
2018-12-10T00:55:15.327Z,95318.00
2018-12-10T01:00:43.456Z,95323.00
2018-12-10T01:06:11.633Z,95363.00
2018-12-10T01:11:40.434Z,95364.00
2018-12-10T01:17:08.615Z,95364.00
2018-12-10T01:22:36.823Z,95384.00
2018-12-10T01:28:04.911Z,95375.00
2018-12-10T01:33:33.031Z,95389.00
2018-12-10T01:39:01.180Z,95397.00
2018-12-10T01:44:29.391Z,95400.00
2018-12-10T01:49:57.473Z,95416.00
2018-12-10T01:55:25.609Z,95421.00
2018-12-10T02:00:53.690Z,95436.00
2018-12-10T02:06:21.768Z,95454.00
2018-12-10T02:11:49.840Z,95443.00
2018-12-10T02:17:17.942Z,95463.00
2018-12-10T02:22:46.032Z,95463.00
2018-12-10T02:28:16.190Z,95481.00
2018-12-10T02:33:44.255Z,95483.00
2018-12-10T02:39:12.365Z,95497.00
2018-12-10T02:44:40.547Z,95503.00
2018-12-10T02:50:08.775Z,95509.00
2018-12-10T02:55:36.871Z,95518.00
2018-12-10T03:01:04.948Z,95514.00
2018-12-10T03:06:33.071Z,95519.00
2018-12-10T03:12:01.195Z,95523.00
2018-12-10T03:17:29.365Z,95535.00
2018-12-10T03:22:57.457Z,95542.00
2018-12-10T03:28:25.520Z,95548.00
2018-12-10T03:33:53.670Z,95554.00
2018-12-10T03:39:21.749Z,95554.00
2018-12-10T03:44:49.856Z,95559.00
2018-12-10T03:50:18.141Z,95560.00
2018-12-10T03:55:46.443Z,95553.00
2018-12-10T04:01:14.898Z,95559.00
2018-12-10T04:06:43.015Z,95563.00
2018-12-10T04:12:11.253Z,95568.00
2018-12-10T04:17:39.316Z,95562.00
2018-12-10T04:23:07.546Z,95578.00
2018-12-10T04:28:35.717Z,95573.00
2018-12-10T04:34:03.821Z,95588.00
2018-12-10T04:39:31.909Z,95580.00
2018-12-10T04:45:00.579Z,95572.00
2018-12-10T04:50:28.763Z,95588.00
2018-12-10T04:55:56.831Z,95594.00
2018-12-10T05:01:24.928Z,95590.00
2018-12-10T05:06:53.048Z,95584.00
2018-12-10T05:12:21.144Z,95600.00
2018-12-10T05:17:49.640Z,95582.00
2018-12-10T05:23:18.867Z,95570.00
2018-12-10T05:28:47.194Z,95594.00
2018-12-10T05:34:15.325Z,95590.00
2018-12-10T05:39:43.425Z,95588.00
2018-12-10T05:45:11.512Z,95585.00
2018-12-10T05:50:43.124Z,95596.00
2018-12-10T05:56:11.232Z,95597.00
2018-12-10T06:01:39.528Z,95594.00
2018-12-10T06:13:13.691Z,95618.00
2018-12-10T06:18:42.787Z,95606.00
2018-12-10T06:24:10.862Z,95615.00
2018-12-10T06:29:38.932Z,95611.00
2018-12-10T06:35:07.149Z,95626.00
2018-12-10T06:40:35.207Z,95627.00
2018-12-10T06:46:03.355Z,95625.00
2018-12-10T06:51:31.427Z,95626.00
2018-12-10T06:57:08.167Z,95634.00
2018-12-10T07:02:36.230Z,95629.00
2018-12-10T07:08:04.410Z,95655.00
2018-12-10T07:13:32.482Z,95663.00
2018-12-10T07:19:00.628Z,95673.00
2018-12-10T07:24:32.135Z,95681.00
2018-12-10T07:30:00.202Z,95687.00
2018-12-10T07:35:28.250Z,95678.00
2018-12-10T07:40:56.307Z,95693.00
2018-12-10T07:46:32.269Z,95695.00
2018-12-10T07:52:00.361Z,95700.00
2018-12-10T07:57:28.431Z,95714.00
2018-12-10T08:02:56.490Z,95716.00
2018-12-10T08:08:24.554Z,95716.00
2018-12-10T08:13:52.626Z,95731.00
2018-12-10T08:19:21.700Z,95738.00
2018-12-10T08:24:49.754Z,95738.00
2018-12-10T08:30:17.805Z,95758.00
2018-12-10T08:35:45.873Z,95759.00
2018-12-10T08:41:14.062Z,95770.00
2018-12-10T08:46:42.167Z,95777.00
2018-12-10T08:52:10.434Z,95783.00
2018-12-10T08:57:38.499Z,95791.00
2018-12-10T09:03:06.627Z,95808.00
2018-12-10T09:08:34.703Z,95809.00
2018-12-10T09:14:02.898Z,95814.00
2018-12-10T09:19:32.859Z,95829.00
2018-12-10T09:25:00.926Z,95830.00
2018-12-10T09:30:42.938Z,95832.00
2018-12-10T09:36:11.080Z,95842.00
2018-12-10T09:41:39.167Z,95848.00
2018-12-10T09:47:07.233Z,95863.00
2018-12-10T09:52:35.384Z,95859.00
2018-12-10T09:58:03.458Z,95848.00
2018-12-10T10:03:31.514Z,95868.00
2018-12-10T10:08:59.585Z,95863.00
2018-12-10T10:14:27.634Z,95878.00
2018-12-10T10:19:55.702Z,95880.00
2018-12-10T10:25:23.762Z,95878.00
2018-12-10T10:30:51.898Z,95874.00
2018-12-10T10:36:19.956Z,95882.00
2018-12-10T10:41:48.196Z,95877.00
2018-12-10T10:47:16.283Z,95884.00
2018-12-10T10:52:44.353Z,95891.00
2018-12-10T10:58:12.422Z,95893.00
2018-12-10T11:03:40.482Z,95892.00
2018-12-10T11:09:15.346Z,95882.00
2018-12-10T11:14:38.591Z,95899.00
2018-12-10T11:20:08.810Z,95893.00
2018-12-10T11:25:36.867Z,95892.00
2018-12-10T11:31:04.989Z,95884.00
2018-12-10T11:36:33.047Z,95867.00
2018-12-10T11:42:02.090Z,95879.00
2018-12-10T11:47:30.166Z,95892.00
2018-12-10T11:52:58.235Z,95879.00
2018-12-10T11:58:26.378Z,95870.00
2018-12-10T12:03:56.404Z,95868.00
2018-12-10T12:09:24.461Z,95865.00
2018-12-10T12:14:55.865Z,95862.00
2018-12-10T12:20:27.059Z,95862.00
2018-12-10T12:25:55.133Z,95875.00
2018-12-10T12:31:24.162Z,95871.00
2018-12-10T12:36:54.095Z,95869.00
2018-12-10T12:42:23.276Z,95876.00
2018-12-10T12:47:51.850Z,95868.00
2018-12-10T12:53:30.489Z,95862.00
2018-12-10T12:58:58.556Z,95863.00
2018-12-10T13:04:28.688Z,95848.00
2018-12-10T13:09:56.976Z,95833.00
2018-12-10T13:15:25.103Z,95832.00
2018-12-10T13:20:54.158Z,95841.00
2018-12-10T13:26:22.278Z,95850.00
2018-12-10T13:31:54.128Z,95846.00
2018-12-10T13:37:22.188Z,95840.00
2018-12-10T13:42:50.342Z,95851.00
2018-12-10T13:48:26.448Z,95851.00
2018-12-10T13:53:54.498Z,95863.00
2018-12-10T13:59:22.566Z,95849.00
2018-12-10T14:04:51.691Z,95844.00
2018-12-10T14:10:19.746Z,95857.00
2018-12-10T14:15:49.885Z,95864.00
2018-12-10T14:21:46.659Z,95858.00
2018-12-10T14:27:20.462Z,95871.00
2018-12-10T14:32:48.575Z,95861.00
2018-12-10T14:38:16.676Z,95878.00
2018-12-10T14:43:55.321Z,95866.00
2018-12-10T14:49:23.437Z,95867.00
2018-12-10T15:00:52.461Z,95856.00
2018-12-10T15:06:25.946Z,95856.00
2018-12-10T15:11:54.013Z,95862.00
2018-12-10T15:17:22.077Z,95860.00
2018-12-10T15:22:50.819Z,95862.00
2018-12-10T15:28:18.918Z,95865.00
2018-12-10T15:33:47.029Z,95862.00
2018-12-10T15:39:15.522Z,95859.00
2018-12-10T15:44:43.727Z,95862.00
2018-12-10T15:50:12.947Z,95850.00
2018-12-10T15:55:41.128Z,95849.00
2018-12-10T16:01:09.259Z,95852.00
2018-12-10T16:06:37.408Z,95852.00
2018-12-10T16:12:05.516Z,95858.00
2018-12-10T16:17:33.626Z,95850.00
2018-12-10T16:23:01.764Z,95837.00
2018-12-10T16:28:29.858Z,95841.00
2018-12-10T16:33:57.971Z,95856.00
2018-12-10T16:39:26.105Z,95850.00
2018-12-10T16:44:55.389Z,95852.00
2018-12-10T16:50:23.482Z,95849.00
2018-12-10T16:55:51.551Z,95852.00
2018-12-10T17:01:19.651Z,95834.00
2018-12-10T17:06:48.255Z,95839.00
2018-12-10T17:12:19.360Z,95837.00
2018-12-10T17:17:48.649Z,95838.00
2018-12-10T17:23:18.586Z,95824.00
2018-12-10T17:28:46.937Z,95826.00
2018-12-10T17:34:15.067Z,95812.00
2018-12-10T17:39:43.799Z,95815.00
2018-12-10T17:45:12.129Z,95812.00
2018-12-10T17:50:40.336Z,95802.00
2018-12-10T17:56:08.790Z,95798.00
2018-12-10T18:01:36.968Z,95794.00
2018-12-10T18:07:06.763Z,95786.00
2018-12-10T18:12:34.865Z,95794.00
2018-12-10T18:18:03.059Z,95803.00
2018-12-10T18:23:31.167Z,95791.00
2018-12-10T18:28:59.253Z,95792.00
2018-12-10T18:34:27.360Z,95788.00
2018-12-10T18:39:55.483Z,95783.00
2018-12-10T18:45:23.571Z,95785.00
2018-12-10T18:50:51.670Z,95787.00
2018-12-10T18:56:20.679Z,95791.00
2018-12-10T19:01:48.876Z,95787.00
2018-12-10T19:07:17.116Z,95801.00
2018-12-10T19:12:45.433Z,95812.00
2018-12-10T19:18:13.586Z,95807.00
2018-12-10T19:23:41.690Z,95811.00
2018-12-10T19:29:09.788Z,95803.00
2018-12-10T19:34:37.872Z,95809.00
2018-12-10T19:40:07.371Z,95803.00
2018-12-10T19:45:35.530Z,95800.00
2018-12-10T19:51:03.764Z,95810.00
2018-12-10T19:56:31.837Z,95802.00
2018-12-10T20:01:59.985Z,95806.00
2018-12-10T20:07:28.283Z,95804.00
2018-12-10T20:12:56.443Z,95807.00
2018-12-10T20:18:24.582Z,95805.00
2018-12-10T20:23:52.811Z,95819.00
2018-12-10T20:29:20.958Z,95840.00
2018-12-10T20:34:49.137Z,95848.00
2018-12-10T20:40:17.208Z,95838.00
2018-12-10T20:45:45.501Z,95807.00
2018-12-10T20:51:14.296Z,95799.00
2018-12-10T20:56:42.540Z,95755.00
2018-12-10T21:02:10.736Z,95791.00
2018-12-10T21:07:39.910Z,95798.00
2018-12-10T21:13:08.098Z,95801.00
2018-12-10T21:18:36.162Z,95791.00
2018-12-10T21:24:04.354Z,95822.00
2018-12-10T21:29:32.452Z,95824.00
2018-12-10T21:35:00.524Z,95820.00
2018-12-10T21:40:28.696Z,95832.00
2018-12-10T21:45:56.769Z,95834.00
2018-12-10T21:51:24.884Z,95834.00
2018-12-10T21:56:52.954Z,95833.00
2018-12-10T22:02:21.069Z,95856.00
2018-12-10T22:07:49.148Z,95839.00
2018-12-10T22:13:17.264Z,95840.00
2018-12-10T22:18:45.360Z,95846.00
2018-12-10T22:24:13.549Z,95831.00
2018-12-10T22:29:41.810Z,95838.00
2018-12-10T22:35:09.980Z,95839.00
2018-12-10T22:40:38.093Z,95843.00
2018-12-10T22:46:06.277Z,95844.00
2018-12-10T22:51:34.389Z,95853.00
2018-12-10T22:57:02.457Z,95854.00
2018-12-10T23:02:30.664Z,95869.00
2018-12-10T23:07:58.796Z,95872.00
2018-12-10T23:13:26.877Z,95883.00
2018-12-10T23:18:54.950Z,95876.00
2018-12-10T23:24:23.058Z,95866.00
2018-12-10T23:29:51.133Z,95868.00
2018-12-10T23:35:19.201Z,95865.00
2018-12-10T23:40:47.285Z,95860.00
2018-12-10T23:46:15.367Z,95872.00
2018-12-10T23:51:43.490Z,95869.00
2018-12-10T23:57:11.593Z,95873.00
